INFORMACIÓN METAR y TAF
METAR FOR EPGD
ADDS - METARS form results

(0512 UTC 22 August 2019)
Data provider http://aviationweather.gov/metar/data/
 
METAR text: EPGD 220500Z 27003KT 230V300 CAVOK 11/11 Q1030
Conditions at: EPGD (GDANSK/REBIECHOW, PL) observed 0500 UTC 22 August 2019
Temperature: 11.0°C (52°F)
Dewpoint: 11.0°C (52°F) [RH = 100%]
Pressure (altimeter): 30.41 inches Hg (1030.0 mb)
Winds: from the W (270 degrees) at 3 MPH (3 knots; 1.5 m/s)
Visibility: 6 or more miles (10+ km)
Ceiling: ceiling and visibility are OK
Clouds: unknown
Weather: no significant weather observed at this time

METAR text: EPGD 220430Z 27005KT 230V300 CAVOK 10/10 Q1030
Conditions at: EPGD (GDANSK/REBIECHOW, PL) observed 0430 UTC 22 August 2019
Temperature: 10.0°C (50°F)
Dewpoint: 10.0°C (50°F) [RH = 100%]
Pressure (altimeter): 30.41 inches Hg (1030.0 mb)
Winds: from the W (270 degrees) at 6 MPH (5 knots; 2.6 m/s)
Visibility: 6 or more miles (10+ km)
Ceiling: ceiling and visibility are OK
Clouds: unknown
Weather: no significant weather observed at this time

Forecast for: EPGD (GDANSK/REBIECHOW, PL)
Text: TAF EPGD 212330Z 2200/2224 24003KT CAVOK
Forecast period: 0000 UTC 22 August 2019 to 0000 UTC 23 August 2019
Forecast type: FROM: standard forecast or significant change
Winds: from the WSW (240 degrees) at 3 MPH (3 knots; 1.5 m/s)
Visibility: 6 or more miles 10+ km)
Ceiling: unknown
Clouds: missing
Weather: NSW  (no significant weather)
Text: PROB40 2201/2205 3000 BR
Forecast period: 0100 to 0500 UTC 22 August 2019
Forecast type: PROBABLE: 40 percent likelihood of the following during this time
Visibility: 1.86 miles (2.99 km)
Ceiling: unknown
Clouds: missing
Weather: BR  (mist)

 MAPA DE AEROPUERTO

 INFORMACIÓN DE PISTA
Pista 11 Longitud 9186 ft Ancho 148 ft
Elevación 450 ft Umbral desplazado 0 ft Rumbo de pista 113
Pista 29 Longitud 9186 ft Ancho 148 ft
Elevación 489 ft Umbral desplazado 0 ft Rumbo de pista 293

 FRECUANCIAS DEL AEROPUERTO
Tipo APP Nombre GDANSK APP Frecuencia 127.275 MHZ
Tipo ATIS Nombre ATIS Frecuencia 129.625 MHZ
Tipo TWR Nombre GDANSK TWR Frecuencia 118.1 MHZ

 RADIO AYUDAS DEL AEROPUERTO
Tipo NDB Nombre Gdansk Frecuencia 322 KHZ
Tipo VOR-DME Nombre Kartuzy Frecuencia 113200 KHZ
Tipo NDB Nombre Gdansk Frecuencia 383 KHZ



              


PayPal

©2019 Oasis Virtual Airlines
Simulando desde el 2013

Oasis Líneas Aéreas Virtuales no está relacionada con ninguna compañía real.
Se trata de un entorno virtual de simulación aérea, sin ánimo de lucro.


Visitas: 43.051

VAM v2.6.2 [MOD.]